createdAt,value
2018-06-27T00:00:12.297Z,1017.51
2018-06-27T00:01:12.260Z,1017.48
2018-06-27T00:02:12.244Z,1017.45
2018-06-27T00:03:12.235Z,1017.52
2018-06-27T00:04:12.222Z,1017.53
2018-06-27T00:05:12.257Z,1017.44
2018-06-27T00:06:12.156Z,1017.47
2018-06-27T00:07:12.187Z,1017.49
2018-06-27T00:08:12.182Z,1017.47
2018-06-27T00:09:12.194Z,1017.50
2018-06-27T00:10:12.134Z,1017.47
2018-06-27T00:11:12.148Z,1017.47
2018-06-27T00:12:12.145Z,1017.49
2018-06-27T00:13:12.135Z,1017.49
2018-06-27T00:14:12.117Z,1017.45
2018-06-27T00:15:12.264Z,1017.48
2018-06-27T00:16:12.086Z,1017.48
2018-06-27T00:17:12.073Z,1017.43
2018-06-27T00:18:12.102Z,1017.41
2018-06-27T00:19:12.057Z,1017.42
2018-06-27T00:20:12.078Z,1017.44
2018-06-27T00:21:12.038Z,1017.48
2018-06-27T00:22:12.024Z,1017.46
2018-06-27T00:23:12.018Z,1017.47
2018-06-27T00:24:12.023Z,1017.48
2018-06-27T00:25:12.026Z,1017.44
2018-06-27T00:26:11.979Z,1017.44
2018-06-27T00:27:11.922Z,1017.42
2018-06-27T00:28:11.951Z,1017.43
2018-06-27T00:29:11.942Z,1017.40
2018-06-27T00:30:11.973Z,1017.44
2018-06-27T00:31:11.924Z,1017.38
2018-06-27T00:32:11.913Z,1017.37
2018-06-27T00:33:11.905Z,1017.37
2018-06-27T00:34:11.916Z,1017.38
2018-06-27T00:35:11.903Z,1017.35
2018-06-27T00:36:11.875Z,1017.34
2018-06-27T00:37:11.862Z,1017.34
2018-06-27T00:38:11.849Z,1017.35
2018-06-27T00:39:11.838Z,1017.33
2018-06-27T00:40:11.864Z,1017.35
2018-06-27T00:41:11.813Z,1017.33
2018-06-27T00:42:11.807Z,1017.35
2018-06-27T00:43:11.789Z,1017.38
2018-06-27T00:44:11.824Z,1017.30
2018-06-27T00:45:11.792Z,1017.32
2018-06-27T00:46:11.757Z,1017.28
2018-06-27T00:47:11.760Z,1017.30
2018-06-27T00:48:11.734Z,1017.30
2018-06-27T00:49:11.730Z,1017.26
2018-06-27T00:50:11.712Z,1017.30
2018-06-27T00:51:11.705Z,1017.27
2018-06-27T00:52:11.700Z,1017.26
2018-06-27T00:53:11.646Z,1017.27
2018-06-27T00:54:11.694Z,1017.24
2018-06-27T00:55:11.676Z,1017.22
2018-06-27T00:56:11.647Z,1017.24
2018-06-27T00:57:11.640Z,1017.22
2018-06-27T00:58:11.626Z,1017.25
2018-06-27T00:59:11.624Z,1017.23
2018-06-27T01:00:11.635Z,1017.22
2018-06-27T01:01:11.601Z,1017.22
2018-06-27T01:02:11.588Z,1017.23
2018-06-27T01:03:11.589Z,1017.21
2018-06-27T01:04:11.560Z,1017.20
2018-06-27T01:05:11.565Z,1017.18
2018-06-27T01:06:11.539Z,1017.17
2018-06-27T01:07:11.598Z,1017.19
2018-06-27T01:08:11.546Z,1017.16
2018-06-27T01:09:11.507Z,1017.17
2018-06-27T01:10:11.521Z,1017.18
2018-06-27T01:11:11.483Z,1017.17
2018-06-27T01:12:11.496Z,1017.18
2018-06-27T01:13:11.460Z,1017.20
2018-06-27T01:14:11.498Z,1017.21
2018-06-27T01:15:11.472Z,1017.27
2018-06-27T01:16:11.431Z,1017.29
2018-06-27T01:17:11.425Z,1017.31
2018-06-27T01:18:11.411Z,1017.30
2018-06-27T01:19:11.393Z,1017.30
2018-06-27T01:20:11.504Z,1017.34
2018-06-27T01:21:11.377Z,1017.33
2018-06-27T01:22:11.384Z,1017.34
2018-06-27T01:23:11.348Z,1017.33
2018-06-27T01:24:11.338Z,1017.35
2018-06-27T01:25:11.408Z,1017.34
2018-06-27T01:26:11.280Z,1017.35
2018-06-27T01:27:11.307Z,1017.36
2018-06-27T01:28:11.293Z,1017.35
2018-06-27T01:29:11.288Z,1017.39
2018-06-27T01:30:11.277Z,1017.37
2018-06-27T01:31:11.288Z,1017.39
2018-06-27T01:32:11.257Z,1017.41
2018-06-27T01:33:11.253Z,1017.40
2018-06-27T01:34:11.242Z,1017.42
2018-06-27T01:35:11.226Z,1017.41
2018-06-27T01:36:11.245Z,1017.40
2018-06-27T01:37:11.242Z,1017.41
2018-06-27T01:38:11.190Z,1017.40
2018-06-27T01:39:11.196Z,1017.40
2018-06-27T01:40:11.171Z,1017.42
2018-06-27T01:41:11.199Z,1017.41
2018-06-27T01:42:11.149Z,1017.48
2018-06-27T01:43:11.134Z,1017.45
2018-06-27T01:44:11.120Z,1017.47
2018-06-27T01:45:11.105Z,1017.46
2018-06-27T01:46:11.247Z,1017.51
2018-06-27T01:47:11.085Z,1017.49
2018-06-27T01:48:11.083Z,1017.48
2018-06-27T01:49:11.089Z,1017.47
2018-06-27T01:50:11.010Z,1017.53
2018-06-27T01:51:11.192Z,1017.55
2018-06-27T01:52:11.031Z,1017.56
2018-06-27T01:53:11.034Z,1017.54
2018-06-27T01:54:11.069Z,1017.58
2018-06-27T01:55:11.001Z,1017.59
2018-06-27T01:56:10.963Z,1017.54
2018-06-27T01:57:11.006Z,1017.58
2018-06-27T01:58:10.973Z,1017.55
2018-06-27T01:59:10.917Z,1017.58
2018-06-27T02:00:10.945Z,1017.64
2018-06-27T02:01:10.966Z,1017.66
2018-06-27T02:02:10.923Z,1017.61
2018-06-27T02:03:10.921Z,1017.64
2018-06-27T02:04:10.888Z,1017.62
2018-06-27T02:05:10.856Z,1017.61
2018-06-27T02:06:10.907Z,1017.59
2018-06-27T02:07:10.892Z,1017.60
2018-06-27T02:08:10.853Z,1017.62
2018-06-27T02:09:10.810Z,1017.65
2018-06-27T02:10:10.798Z,1017.59
2018-06-27T02:11:10.866Z,1017.65
2018-06-27T02:12:10.814Z,1017.60
2018-06-27T02:13:10.802Z,1017.58
2018-06-27T02:14:10.802Z,1017.58
2018-06-27T02:15:10.789Z,1017.58
2018-06-27T02:16:10.801Z,1017.61
2018-06-27T02:17:10.760Z,1017.57
2018-06-27T02:18:10.757Z,1017.56
2018-06-27T02:19:10.737Z,1017.55
2018-06-27T02:20:10.721Z,1017.55
2018-06-27T02:21:10.749Z,1017.55
2018-06-27T02:22:10.716Z,1017.53
2018-06-27T02:23:10.697Z,1017.58
2018-06-27T02:24:10.776Z,1017.61
2018-06-27T02:25:10.669Z,1017.58
2018-06-27T02:26:10.616Z,1017.56
2018-06-27T02:27:10.675Z,1017.61
2018-06-27T02:28:10.648Z,1017.63
2018-06-27T02:29:10.668Z,1017.64
2018-06-27T02:30:10.632Z,1017.66
2018-06-27T02:31:10.563Z,1017.66
2018-06-27T02:32:10.611Z,1017.65
2018-06-27T02:33:10.591Z,1017.58
2018-06-27T02:34:10.573Z,1017.63
2018-06-27T02:35:10.563Z,1017.63
2018-06-27T02:36:10.552Z,1017.61
2018-06-27T02:37:10.559Z,1017.64
2018-06-27T02:38:10.536Z,1017.64
2018-06-27T02:39:10.518Z,1017.66
2018-06-27T02:40:10.510Z,1017.63
2018-06-27T02:41:10.493Z,1017.64
2018-06-27T02:42:10.515Z,1017.65
2018-06-27T02:43:10.471Z,1017.66
2018-06-27T02:44:10.461Z,1017.66
2018-06-27T02:45:10.479Z,1017.69
2018-06-27T02:46:10.441Z,1017.69
2018-06-27T02:47:10.418Z,1017.68
2018-06-27T02:48:10.467Z,1017.70
2018-06-27T02:49:10.364Z,1017.67
2018-06-27T02:50:10.356Z,1017.69
2018-06-27T02:51:10.385Z,1017.77
2018-06-27T02:52:10.357Z,1017.70
2018-06-27T02:53:10.335Z,1017.71
2018-06-27T02:54:10.355Z,1017.73
2018-06-27T02:55:10.338Z,1017.75
2018-06-27T02:56:10.342Z,1017.79
2018-06-27T02:57:10.346Z,1017.74
2018-06-27T02:58:10.320Z,1017.72
2018-06-27T02:59:10.310Z,1017.74
2018-06-27T03:00:10.295Z,1017.78
2018-06-27T03:01:10.280Z,1017.74
2018-06-27T03:02:10.294Z,1017.74
2018-06-27T03:03:10.256Z,1017.73
2018-06-27T03:04:10.253Z,1017.72
2018-06-27T03:05:10.235Z,1017.77
2018-06-27T03:06:10.334Z,1017.81
2018-06-27T03:07:10.268Z,1017.80
2018-06-27T03:08:10.202Z,1017.75
2018-06-27T03:09:10.196Z,1017.78
2018-06-27T03:10:10.209Z,1017.78
2018-06-27T03:11:10.164Z,1017.78
2018-06-27T03:12:10.187Z,1017.83
2018-06-27T03:13:10.157Z,1017.78
2018-06-27T03:14:10.135Z,1017.82
2018-06-27T03:15:10.137Z,1017.80
2018-06-27T03:16:10.106Z,1017.87
2018-06-27T03:17:10.141Z,1017.82
2018-06-27T03:18:10.094Z,1017.83
2018-06-27T03:19:10.077Z,1017.84
2018-06-27T03:20:10.024Z,1017.85
2018-06-27T03:21:10.058Z,1017.86
2018-06-27T03:22:10.216Z,1017.85
2018-06-27T03:23:10.047Z,1017.85
2018-06-27T03:24:10.024Z,1017.85
2018-06-27T03:25:10.013Z,1017.87
2018-06-27T03:26:10.008Z,1017.88
2018-06-27T03:27:10.031Z,1017.84
2018-06-27T03:28:10.002Z,1017.85
2018-06-27T03:29:09.969Z,1017.85
2018-06-27T03:30:10.034Z,1017.88
2018-06-27T03:31:09.948Z,1017.87
2018-06-27T03:32:09.981Z,1017.87
2018-06-27T03:33:09.929Z,1017.88
2018-06-27T03:34:09.919Z,1017.86
2018-06-27T03:35:09.904Z,1017.83
2018-06-27T03:36:09.908Z,1017.87
2018-06-27T03:37:09.925Z,1017.82
2018-06-27T03:38:09.873Z,1017.89
2018-06-27T03:39:09.862Z,1017.88
2018-06-27T03:40:09.846Z,1017.89
2018-06-27T03:41:09.834Z,1017.87
2018-06-27T03:42:09.849Z,1017.87
2018-06-27T03:43:09.807Z,1017.88
2018-06-27T03:44:09.803Z,1017.89
2018-06-27T03:45:09.806Z,1017.93
2018-06-27T03:46:09.803Z,1017.89
2018-06-27T03:47:09.775Z,1017.90
2018-06-27T03:48:09.792Z,1017.88
2018-06-27T03:49:09.749Z,1017.84
2018-06-27T03:50:09.736Z,1017.89
2018-06-27T03:51:09.742Z,1017.89
2018-06-27T03:52:09.714Z,1017.90
2018-06-27T03:53:09.764Z,1017.91
2018-06-27T03:54:09.695Z,1017.90
2018-06-27T03:55:09.683Z,1017.91
2018-06-27T03:56:09.672Z,1017.95
2018-06-27T03:57:09.739Z,1017.92
2018-06-27T03:58:09.685Z,1017.93
2018-06-27T03:59:09.650Z,1017.90
2018-06-27T04:00:09.628Z,1017.89
2018-06-27T04:01:09.615Z,1017.94
2018-06-27T04:02:09.622Z,1017.95
2018-06-27T04:03:09.637Z,1017.95
2018-06-27T04:04:09.587Z,1017.97
2018-06-27T04:05:09.580Z,1017.98
2018-06-27T04:06:09.567Z,1018.00
2018-06-27T04:07:09.560Z,1018.01
2018-06-27T04:08:09.560Z,1018.05
2018-06-27T04:09:09.555Z,1018.03
2018-06-27T04:10:09.518Z,1018.02
2018-06-27T04:11:09.511Z,1018.01
2018-06-27T04:12:09.493Z,1018.03
2018-06-27T04:13:09.574Z,1018.04
2018-06-27T04:14:09.485Z,1018.07
2018-06-27T04:15:09.467Z,1018.03
2018-06-27T04:16:09.461Z,1018.08
2018-06-27T04:17:09.452Z,1018.09
2018-06-27T04:18:09.469Z,1018.11
2018-06-27T04:19:09.425Z,1018.06
2018-06-27T04:20:09.429Z,1018.09
2018-06-27T04:21:09.409Z,1018.13
2018-06-27T04:22:09.389Z,1018.11
2018-06-27T04:23:09.372Z,1018.16
2018-06-27T04:24:09.370Z,1018.15
2018-06-27T04:25:09.360Z,1018.22
2018-06-27T04:26:09.344Z,1018.13
2018-06-27T04:27:09.342Z,1018.11
2018-06-27T04:28:09.345Z,1018.14
2018-06-27T04:29:09.313Z,1018.13
2018-06-27T04:30:09.306Z,1018.16
2018-06-27T04:31:09.290Z,1018.14
2018-06-27T04:32:09.245Z,1018.16
2018-06-27T04:33:09.292Z,1018.16
2018-06-27T04:34:09.260Z,1018.16
2018-06-27T04:35:09.268Z,1018.21
2018-06-27T04:36:09.290Z,1018.19
2018-06-27T04:37:09.222Z,1018.18
2018-06-27T04:38:09.248Z,1018.23
2018-06-27T04:39:09.207Z,1018.23
2018-06-27T04:40:09.195Z,1018.21
2018-06-27T04:41:09.183Z,1018.20
2018-06-27T04:42:09.175Z,1018.20
2018-06-27T04:43:09.219Z,1018.22
2018-06-27T04:44:09.155Z,1018.21
2018-06-27T04:45:09.168Z,1018.25
2018-06-27T04:46:09.123Z,1018.26
2018-06-27T04:47:09.120Z,1018.28
2018-06-27T04:48:09.082Z,1018.27
2018-06-27T04:49:09.090Z,1018.27
2018-06-27T04:50:09.112Z,1018.22
2018-06-27T04:51:09.090Z,1018.22
2018-06-27T04:52:09.064Z,1018.20
2018-06-27T04:53:09.033Z,1018.14
2018-06-27T04:54:09.033Z,1018.17
2018-06-27T04:55:09.092Z,1018.20
2018-06-27T04:56:09.036Z,1018.19
2018-06-27T04:57:09.013Z,1018.18
2018-06-27T04:58:09.158Z,1018.26
2018-06-27T04:59:08.997Z,1018.24
2018-06-27T05:00:08.970Z,1018.23
2018-06-27T05:01:09.013Z,1018.26
2018-06-27T05:02:08.953Z,1018.25
2018-06-27T05:03:08.942Z,1018.23
2018-06-27T05:04:08.964Z,1018.24
2018-06-27T05:05:08.917Z,1018.19
2018-06-27T05:06:08.907Z,1018.23
2018-06-27T05:07:08.899Z,1018.22
2018-06-27T05:08:08.891Z,1018.17
2018-06-27T05:09:08.899Z,1018.19
2018-06-27T05:10:08.867Z,1018.19
2018-06-27T05:11:08.860Z,1018.14
2018-06-27T05:12:08.852Z,1018.16
2018-06-27T05:13:08.833Z,1018.13
2018-06-27T05:14:08.843Z,1018.10
2018-06-27T05:15:08.811Z,1018.10
2018-06-27T05:16:08.806Z,1018.15
2018-06-27T05:17:08.789Z,1018.11
2018-06-27T05:18:08.778Z,1018.09
2018-06-27T05:19:08.784Z,1018.12
2018-06-27T05:20:08.767Z,1018.09
2018-06-27T05:21:08.755Z,1018.08
2018-06-27T05:22:08.687Z,1018.09
2018-06-27T05:23:08.722Z,1018.09
2018-06-27T05:24:08.737Z,1018.10
2018-06-27T05:25:08.732Z,1018.09
2018-06-27T05:26:08.701Z,1018.09
2018-06-27T05:27:08.632Z,1018.07
2018-06-27T05:28:08.667Z,1018.12
2018-06-27T05:29:08.682Z,1018.10
2018-06-27T05:30:08.654Z,1018.07
2018-06-27T05:31:08.677Z,1018.10
2018-06-27T05:32:08.574Z,1018.08
2018-06-27T05:33:08.610Z,1018.12
2018-06-27T05:34:08.628Z,1018.10
2018-06-27T05:35:08.594Z,1018.13
2018-06-27T05:36:08.576Z,1018.15
2018-06-27T05:37:08.599Z,1018.16
2018-06-27T05:38:08.574Z,1018.16
2018-06-27T05:39:08.565Z,1018.15
2018-06-27T05:40:08.529Z,1018.18
2018-06-27T05:41:08.529Z,1018.20
2018-06-27T05:42:08.525Z,1018.17
2018-06-27T05:43:08.492Z,1018.19
2018-06-27T05:44:08.585Z,1018.16
2018-06-27T05:45:08.491Z,1018.19
2018-06-27T05:46:08.472Z,1018.20
2018-06-27T05:47:08.475Z,1018.18
2018-06-27T05:48:08.452Z,1018.12
2018-06-27T05:49:08.450Z,1018.19
2018-06-27T05:50:08.430Z,1018.15
2018-06-27T05:51:08.407Z,1018.12
2018-06-27T05:52:08.371Z,1018.13
2018-06-27T05:53:08.392Z,1018.16
2018-06-27T05:54:08.508Z,1018.16
2018-06-27T05:55:08.363Z,1018.18
2018-06-27T05:56:08.368Z,1018.14
2018-06-27T05:57:08.345Z,1018.10
2018-06-27T05:58:08.367Z,1018.09
2018-06-27T05:59:08.381Z,1018.07
2018-06-27T06:00:08.332Z,1018.06
2018-06-27T06:01:08.320Z,1018.06
2018-06-27T06:02:08.433Z,1018.04
2018-06-27T06:03:08.295Z,1018.05
2018-06-27T06:04:08.295Z,1018.06
2018-06-27T06:05:08.266Z,1018.04
2018-06-27T06:06:08.289Z,1018.04
2018-06-27T06:07:08.228Z,1018.04
2018-06-27T06:08:08.231Z,1018.07
2018-06-27T06:09:08.205Z,1018.07
2018-06-27T06:10:08.231Z,1018.06
2018-06-27T06:11:08.211Z,1018.02
2018-06-27T06:12:08.189Z,1018.06
2018-06-27T06:13:08.171Z,1018.07
2018-06-27T06:14:08.160Z,1018.04
2018-06-27T06:15:08.185Z,1018.02
2018-06-27T06:16:08.150Z,1018.05
2018-06-27T06:17:08.076Z,1018.04
2018-06-27T06:18:08.080Z,1018.05
2018-06-27T06:19:08.124Z,1018.05
2018-06-27T06:20:08.113Z,1018.05
2018-06-27T06:21:08.087Z,1018.04
2018-06-27T06:22:08.073Z,1018.04
2018-06-27T06:23:08.056Z,1018.07
2018-06-27T06:24:08.060Z,1018.09
2018-06-27T06:25:08.056Z,1018.06
2018-06-27T06:26:08.286Z,1018.07
2018-06-27T06:27:08.012Z,1018.07
2018-06-27T06:28:08.003Z,1018.12
2018-06-27T06:29:08.152Z,1018.09
2018-06-27T06:30:08.022Z,1018.14
2018-06-27T06:31:07.981Z,1018.11
2018-06-27T06:32:07.985Z,1018.18
2018-06-27T06:33:07.979Z,1018.18
2018-06-27T06:34:07.968Z,1018.23
2018-06-27T06:35:07.994Z,1018.23
2018-06-27T06:36:07.939Z,1018.18
2018-06-27T06:37:07.863Z,1018.24
2018-06-27T06:38:07.866Z,1018.20
2018-06-27T06:39:07.894Z,1018.16
2018-06-27T06:40:07.852Z,1018.16
2018-06-27T06:41:07.857Z,1018.22
2018-06-27T06:42:07.870Z,1018.22
2018-06-27T06:43:07.845Z,1018.23
2018-06-27T06:44:07.829Z,1018.24
2018-06-27T06:45:07.850Z,1018.24
2018-06-27T06:46:07.818Z,1018.25
2018-06-27T06:47:07.798Z,1018.24
2018-06-27T06:48:07.787Z,1018.33
2018-06-27T06:49:07.771Z,1018.28
2018-06-27T06:50:07.790Z,1018.25
2018-06-27T06:51:07.809Z,1018.35
2018-06-27T06:52:07.786Z,1018.36
2018-06-27T06:53:07.692Z,1018.37
2018-06-27T06:54:07.685Z,1018.37
2018-06-27T06:55:07.746Z,1018.41
2018-06-27T06:56:07.698Z,1018.36
2018-06-27T06:57:07.687Z,1018.42
2018-06-27T06:58:07.772Z,1018.40
2018-06-27T06:59:07.679Z,1018.41
2018-06-27T07:00:07.689Z,1018.42
2018-06-27T07:01:07.697Z,1018.46
2018-06-27T07:02:07.637Z,1018.42
2018-06-27T07:03:07.632Z,1018.42
2018-06-27T07:04:07.627Z,1018.45
2018-06-27T07:05:07.656Z,1018.41
2018-06-27T07:06:07.596Z,1018.43
2018-06-27T07:07:07.601Z,1018.45
2018-06-27T07:08:07.574Z,1018.49
2018-06-27T07:09:07.580Z,1018.49
2018-06-27T07:10:07.588Z,1018.45
2018-06-27T07:11:07.616Z,1018.46
2018-06-27T07:12:07.537Z,1018.43
2018-06-27T07:13:07.531Z,1018.43
2018-06-27T07:14:07.627Z,1018.39
2018-06-27T07:15:07.485Z,1018.39
2018-06-27T07:16:07.486Z,1018.41
2018-06-27T07:17:07.506Z,1018.41
2018-06-27T07:18:07.472Z,1018.35
2018-06-27T07:19:07.455Z,1018.35
2018-06-27T07:20:07.482Z,1018.35
2018-06-27T07:21:07.460Z,1018.37
2018-06-27T07:22:07.437Z,1018.36
2018-06-27T07:23:07.421Z,1018.36
2018-06-27T07:24:07.411Z,1018.38
2018-06-27T07:25:07.428Z,1018.39
2018-06-27T07:26:07.398Z,1018.40
2018-06-27T07:27:07.385Z,1018.42
2018-06-27T07:28:07.331Z,1018.39
2018-06-27T07:29:07.353Z,1018.42
2018-06-27T07:30:07.425Z,1018.35
2018-06-27T07:31:07.332Z,1018.36
2018-06-27T07:32:07.328Z,1018.38
2018-06-27T07:33:07.328Z,1018.32
2018-06-27T07:34:07.303Z,1018.36
2018-06-27T07:35:07.329Z,1018.34
2018-06-27T07:36:07.311Z,1018.33
2018-06-27T07:37:07.231Z,1018.36
2018-06-27T07:38:07.339Z,1018.31
2018-06-27T07:39:07.254Z,1018.29
2018-06-27T07:40:07.204Z,1018.30
2018-06-27T07:41:07.264Z,1018.28
2018-06-27T07:42:07.225Z,1018.27
2018-06-27T07:43:07.218Z,1018.28
2018-06-27T07:44:07.206Z,1018.27
2018-06-27T07:45:07.192Z,1018.28
2018-06-27T07:46:07.164Z,1018.26
2018-06-27T07:47:07.192Z,1018.28
2018-06-27T07:48:07.194Z,1018.27
2018-06-27T07:49:07.160Z,1018.25
2018-06-27T07:50:07.156Z,1018.24
2018-06-27T07:51:07.155Z,1018.27
2018-06-27T07:52:07.127Z,1018.22
2018-06-27T07:53:07.121Z,1018.23
2018-06-27T07:54:07.199Z,1018.22
2018-06-27T07:55:07.160Z,1018.26
2018-06-27T07:56:07.103Z,1018.22
2018-06-27T07:57:07.082Z,1018.23
2018-06-27T07:58:07.064Z,1018.24
2018-06-27T07:59:07.082Z,1018.25
2018-06-27T08:00:07.049Z,1018.25
2018-06-27T08:01:07.051Z,1018.23
2018-06-27T08:02:07.032Z,1018.19
2018-06-27T08:03:07.009Z,1018.19
2018-06-27T08:04:07.015Z,1018.21
2018-06-27T08:05:06.996Z,1018.20
2018-06-27T08:06:07.014Z,1018.11
2018-06-27T08:07:06.932Z,1018.18
2018-06-27T08:08:06.957Z,1018.21
2018-06-27T08:09:06.983Z,1018.22
2018-06-27T08:10:06.914Z,1018.21
2018-06-27T08:11:06.951Z,1018.22
2018-06-27T08:12:06.929Z,1018.22
2018-06-27T08:13:06.916Z,1018.23
2018-06-27T08:14:06.897Z,1018.24
2018-06-27T08:15:06.892Z,1018.23
2018-06-27T08:16:06.869Z,1018.22
2018-06-27T08:17:06.868Z,1018.17
2018-06-27T08:18:06.871Z,1018.14
2018-06-27T08:19:06.854Z,1018.12
2018-06-27T08:20:06.838Z,1018.17
2018-06-27T08:21:06.860Z,1018.13
2018-06-27T08:22:06.838Z,1018.10
2018-06-27T08:23:06.807Z,1018.08
2018-06-27T08:24:06.799Z,1018.05
2018-06-27T08:25:06.796Z,1018.05
2018-06-27T08:26:06.846Z,1018.05
2018-06-27T08:27:06.770Z,1018.02
2018-06-27T08:28:06.755Z,1018.04
2018-06-27T08:29:06.755Z,1017.99
2018-06-27T08:30:06.693Z,1017.97
2018-06-27T08:31:06.890Z,1017.91
2018-06-27T08:32:06.739Z,1017.92
2018-06-27T08:33:06.702Z,1017.91
2018-06-27T08:34:06.700Z,1017.91
2018-06-27T08:35:06.682Z,1017.95
2018-06-27T08:36:06.686Z,1017.90
2018-06-27T08:37:06.694Z,1017.96
2018-06-27T08:38:06.659Z,1017.95
2018-06-27T08:39:06.647Z,1017.98
2018-06-27T08:40:06.634Z,1017.90
2018-06-27T08:41:06.626Z,1017.90
2018-06-27T08:42:06.642Z,1017.87
2018-06-27T08:43:06.603Z,1017.79
2018-06-27T08:44:06.601Z,1017.92
2018-06-27T08:45:06.596Z,1017.85
2018-06-27T08:46:06.532Z,1017.85
2018-06-27T08:47:06.576Z,1017.82
2018-06-27T08:48:06.590Z,1017.78
2018-06-27T08:49:06.538Z,1017.74
2018-06-27T08:50:06.582Z,1017.63
2018-06-27T08:51:06.521Z,1017.53
2018-06-27T08:52:06.527Z,1017.55
2018-06-27T08:53:06.521Z,1017.47
2018-06-27T08:54:06.489Z,1017.45
2018-06-27T08:55:06.494Z,1017.49
2018-06-27T08:56:06.465Z,1017.47
2018-06-27T08:57:06.497Z,1017.44
2018-06-27T08:58:06.448Z,1017.41
2018-06-27T08:59:06.448Z,1017.41
2018-06-27T09:00:06.465Z,1017.43
2018-06-27T09:01:06.369Z,1017.42
2018-06-27T09:02:06.423Z,1017.38
2018-06-27T09:03:06.380Z,1017.39
2018-06-27T09:04:06.395Z,1017.37
2018-06-27T09:05:06.387Z,1017.39
2018-06-27T09:06:07.277Z,1017.29
2018-06-27T09:07:06.374Z,1017.34
2018-06-27T09:08:06.343Z,1017.36
2018-06-27T09:09:06.340Z,1017.36
2018-06-27T09:10:06.279Z,1017.37
2018-06-27T09:11:06.327Z,1017.36
2018-06-27T09:12:06.346Z,1017.33
2018-06-27T09:13:06.289Z,1017.36
2018-06-27T09:14:06.278Z,1017.34
2018-06-27T09:15:06.265Z,1017.30
2018-06-27T09:16:06.254Z,1017.28
2018-06-27T09:17:06.298Z,1017.35
2018-06-27T09:18:06.236Z,1017.34
2018-06-27T09:19:06.221Z,1017.32
2018-06-27T09:20:06.226Z,1017.35
2018-06-27T09:21:06.209Z,1017.33
2018-06-27T09:22:06.237Z,1017.36
2018-06-27T09:23:06.137Z,1017.37
2018-06-27T09:24:06.177Z,1017.34
2018-06-27T09:25:06.159Z,1017.33
2018-06-27T09:26:06.164Z,1017.32
2018-06-27T09:27:06.355Z,1017.25
2018-06-27T09:28:06.135Z,1017.28
2018-06-27T09:29:06.336Z,1017.25
2018-06-27T09:30:06.154Z,1017.24
2018-06-27T09:31:06.168Z,1017.26
2018-06-27T09:32:06.131Z,1017.24
2018-06-27T09:33:06.105Z,1017.30
2018-06-27T09:34:06.087Z,1017.23
2018-06-27T09:35:06.062Z,1017.25
2018-06-27T09:36:06.050Z,1017.22
2018-06-27T09:37:06.062Z,1017.22
2018-06-27T09:38:06.044Z,1017.21
2018-06-27T09:39:06.013Z,1017.22
2018-06-27T09:40:06.005Z,1017.22
2018-06-27T09:41:05.997Z,1017.20
2018-06-27T09:42:06.207Z,1017.23
2018-06-27T09:43:05.989Z,1017.12
2018-06-27T09:44:05.958Z,1017.13
2018-06-27T09:45:05.952Z,1017.19
2018-06-27T09:46:05.937Z,1017.20
2018-06-27T09:47:05.924Z,1017.12
2018-06-27T09:48:05.950Z,1017.17
2018-06-27T09:49:05.929Z,1017.17
2018-06-27T09:50:05.898Z,1017.16
2018-06-27T09:51:05.904Z,1017.20
2018-06-27T09:52:05.872Z,1017.17
2018-06-27T09:53:05.885Z,1017.17
2018-06-27T09:54:05.856Z,1017.17
2018-06-27T09:55:05.842Z,1017.15
2018-06-27T09:56:05.840Z,1017.15
2018-06-27T09:57:05.880Z,1017.10
2018-06-27T09:58:05.909Z,1017.10
2018-06-27T09:59:05.805Z,1017.06
2018-06-27T10:00:05.788Z,1017.03
2018-06-27T10:01:05.780Z,1017.02
2018-06-27T10:02:05.793Z,1017.03
2018-06-27T10:03:05.848Z,1016.99
2018-06-27T10:04:05.749Z,1016.99
2018-06-27T10:05:05.731Z,1016.98
2018-06-27T10:06:05.727Z,1016.95
2018-06-27T10:07:05.750Z,1016.92
2018-06-27T10:08:05.726Z,1016.95
2018-06-27T10:09:05.693Z,1016.98
2018-06-27T10:10:05.702Z,1016.93
2018-06-27T10:11:05.676Z,1016.87
2018-06-27T10:12:05.658Z,1016.87
2018-06-27T10:13:05.673Z,1016.84
2018-06-27T10:14:05.645Z,1016.80
2018-06-27T10:15:05.630Z,1016.81
2018-06-27T10:16:05.617Z,1016.82
2018-06-27T10:17:05.667Z,1016.79
2018-06-27T10:18:05.619Z,1016.80
2018-06-27T10:19:05.586Z,1016.76
2018-06-27T10:20:05.581Z,1016.78
2018-06-27T10:21:05.570Z,1016.76
2018-06-27T10:22:05.557Z,1016.72
2018-06-27T10:23:05.647Z,1016.75
2018-06-27T10:24:05.539Z,1016.69
2018-06-27T10:25:05.518Z,1016.66
2018-06-27T10:26:05.515Z,1016.64
2018-06-27T10:27:05.449Z,1016.62
2018-06-27T10:28:05.462Z,1016.69
2018-06-27T10:29:05.481Z,1016.67
2018-06-27T10:30:05.474Z,1016.67
2018-06-27T10:31:05.465Z,1016.67
2018-06-27T10:32:05.448Z,1016.61
2018-06-27T10:33:05.472Z,1016.59
2018-06-27T10:34:05.424Z,1016.59
2018-06-27T10:35:05.373Z,1016.64
2018-06-27T10:36:05.376Z,1016.62
2018-06-27T10:37:05.401Z,1016.63
2018-06-27T10:38:05.411Z,1016.61
2018-06-27T10:39:05.389Z,1016.58
2018-06-27T10:40:05.363Z,1016.53
2018-06-27T10:41:05.363Z,1016.69
2018-06-27T10:42:05.345Z,1016.63
2018-06-27T10:43:05.320Z,1016.55
2018-06-27T10:44:05.325Z,1016.51
2018-06-27T10:45:05.321Z,1016.53
2018-06-27T10:46:05.337Z,1016.50
2018-06-27T10:47:05.287Z,1016.48
2018-06-27T10:48:05.316Z,1016.51
2018-06-27T10:49:05.273Z,1016.52
2018-06-27T10:50:05.209Z,1016.48
2018-06-27T10:51:05.241Z,1016.49
2018-06-27T10:52:05.229Z,1016.44
2018-06-27T10:53:05.269Z,1016.40
2018-06-27T10:54:05.217Z,1016.37
2018-06-27T10:55:05.207Z,1016.38
2018-06-27T10:56:05.204Z,1016.33
2018-06-27T10:57:05.179Z,1016.31
2018-06-27T10:58:05.186Z,1016.33
2018-06-27T10:59:05.163Z,1016.30
2018-06-27T11:00:05.161Z,1016.30
2018-06-27T11:01:05.193Z,1016.32
2018-06-27T11:02:05.081Z,1016.33
2018-06-27T11:03:05.122Z,1016.27
2018-06-27T11:04:05.112Z,1016.28
2018-06-27T11:05:05.108Z,1016.26
2018-06-27T11:06:05.085Z,1016.21
2018-06-27T11:07:05.092Z,1016.19
2018-06-27T11:08:05.060Z,1016.15
2018-06-27T11:09:05.068Z,1016.14
2018-06-27T11:10:05.048Z,1016.10
2018-06-27T11:11:05.035Z,1016.12
2018-06-27T11:12:04.971Z,1016.03
2018-06-27T11:13:05.050Z,1016.02
2018-06-27T11:14:05.020Z,1016.05
2018-06-27T11:15:04.982Z,1016.03
2018-06-27T11:16:04.944Z,1016.04
2018-06-27T11:17:04.964Z,1016.02
2018-06-27T11:18:04.977Z,1016.05
2018-06-27T11:19:04.954Z,1016.06
2018-06-27T11:20:04.934Z,1016.08
2018-06-27T11:21:04.921Z,1015.99
2018-06-27T11:22:04.911Z,1015.98
2018-06-27T11:23:04.929Z,1015.97
2018-06-27T11:24:04.890Z,1015.99
2018-06-27T11:25:04.881Z,1015.96
2018-06-27T11:26:04.868Z,1015.96
2018-06-27T11:27:04.877Z,1015.89
2018-06-27T11:28:04.923Z,1015.91
2018-06-27T11:29:04.859Z,1015.89
2018-06-27T11:30:04.829Z,1015.92
2018-06-27T11:31:04.828Z,1015.92
2018-06-27T11:32:04.811Z,1015.91
2018-06-27T11:33:04.842Z,1015.88
2018-06-27T11:34:04.784Z,1015.88
2018-06-27T11:35:04.783Z,1015.86
2018-06-27T11:36:04.767Z,1015.85
2018-06-27T11:37:04.753Z,1015.80
2018-06-27T11:38:04.747Z,1015.80
2018-06-27T11:39:04.766Z,1015.80
2018-06-27T11:40:04.734Z,1015.77
2018-06-27T11:41:04.726Z,1015.67
2018-06-27T11:42:04.716Z,1015.69
2018-06-27T11:43:04.744Z,1015.71
2018-06-27T11:44:04.710Z,1015.70
2018-06-27T11:45:04.671Z,1015.68
2018-06-27T11:46:04.714Z,1015.67
2018-06-27T11:47:04.669Z,1015.69
2018-06-27T11:48:04.648Z,1015.71
2018-06-27T11:49:04.645Z,1015.62
2018-06-27T11:50:04.623Z,1015.62
2018-06-27T11:51:04.605Z,1015.65
2018-06-27T11:52:04.599Z,1015.66
2018-06-27T11:53:04.585Z,1015.65
2018-06-27T11:54:04.657Z,1015.68
2018-06-27T11:55:04.562Z,1015.69
2018-06-27T11:56:04.518Z,1015.66
2018-06-27T11:57:04.541Z,1015.64
2018-06-27T11:58:04.538Z,1015.61
2018-06-27T11:59:04.558Z,1015.61
2018-06-27T12:00:04.528Z,1015.57
2018-06-27T12:01:04.505Z,1015.56
2018-06-27T12:02:04.492Z,1015.52
2018-06-27T12:03:04.481Z,1015.56
2018-06-27T12:04:04.507Z,1015.57
2018-06-27T12:05:04.472Z,1015.63